sensor_id;sensor_type;location;lat;lon;timestamp;temperature;humidity
32640;DHT22;19049;52.524;11.468;2024-03-23T00:53:01;9.80;99.90
32640;DHT22;19049;52.524;11.468;2024-03-23T00:55:27;9.70;99.90
32640;DHT22;19049;52.524;11.468;2024-03-23T00:57:52;9.80;99.90
32640;DHT22;19049;52.524;11.468;2024-03-23T01:00:18;9.80;99.90
32640;DHT22;19049;52.524;11.468;2024-03-23T01:02:44;9.70;99.90
32640;DHT22;19049;52.524;11.468;2024-03-23T01:05:09;9.80;99.90
32640;DHT22;19049;52.524;11.468;2024-03-23T01:07:35;9.70;99.90
32640;DHT22;19049;52.524;11.468;2024-03-23T01:10:00;9.70;99.90
32640;DHT22;19049;52.524;11.468;2024-03-23T01:12:26;9.70;99.90
32640;DHT22;19049;52.524;11.468;2024-03-23T01:14:51;9.70;99.90
32640;DHT22;19049;52.524;11.468;2024-03-23T01:17:17;9.70;99.90
32640;DHT22;19049;52.524;11.468;2024-03-23T01:19:42;9.70;99.90
32640;DHT22;19049;52.524;11.468;2024-03-23T01:22:08;9.70;99.90
32640;DHT22;19049;52.524;11.468;2024-03-23T01:24:35;9.60;99.90
32640;DHT22;19049;52.524;11.468;2024-03-23T01:27:01;9.60;99.90
32640;DHT22;19049;52.524;11.468;2024-03-23T01:29:26;9.60;99.90
32640;DHT22;19049;52.524;11.468;2024-03-23T01:31:52;9.60;99.90
32640;DHT22;19049;52.524;11.468;2024-03-23T01:34:17;9.60;99.90
32640;DHT22;19049;52.524;11.468;2024-03-23T01:36:45;9.60;99.90
32640;DHT22;19049;52.524;11.468;2024-03-23T01:39:11;9.50;99.90
32640;DHT22;19049;52.524;11.468;2024-03-23T01:41:37;9.50;99.90
32640;DHT22;19049;52.524;11.468;2024-03-23T01:44:05;9.50;99.90
32640;DHT22;19049;52.524;11.468;2024-03-23T01:46:39;9.50;99.90
32640;DHT22;19049;52.524;11.468;2024-03-23T01:49:07;9.40;99.90
32640;DHT22;19049;52.524;11.468;2024-03-23T01:51:33;9.40;99.90
32640;DHT22;19049;52.524;11.468;2024-03-23T01:54:00;9.40;99.90
32640;DHT22;19049;52.524;11.468;2024-03-23T01:56:31;9.40;99.90
32640;DHT22;19049;52.524;11.468;2024-03-23T01:58:59;9.30;99.90
32640;DHT22;19049;52.524;11.468;2024-03-23T02:01:24;9.40;99.90
32640;DHT22;19049;52.524;11.468;2024-03-23T02:03:50;9.40;99.90
32640;DHT22;19049;52.524;11.468;2024-03-23T02:06:16;9.30;99.90
32640;DHT22;19049;52.524;11.468;2024-03-23T02:08:41;9.30;99.90
32640;DHT22;19049;52.524;11.468;2024-03-23T02:11:07;9.30;99.90
32640;DHT22;19049;52.524;11.468;2024-03-23T02:13:33;9.30;99.90
32640;DHT22;19049;52.524;11.468;2024-03-23T02:15:58;9.30;99.90
32640;DHT22;19049;52.524;11.468;2024-03-23T02:18:24;9.20;99.90
32640;DHT22;19049;52.524;11.468;2024-03-23T02:20:50;9.20;99.90
32640;DHT22;19049;52.524;11.468;2024-03-23T02:23:16;9.20;99.90
32640;DHT22;19049;52.524;11.468;2024-03-23T02:25:42;9.20;99.90
32640;DHT22;19049;52.524;11.468;2024-03-23T02:28:07;9.10;99.90
32640;DHT22;19049;52.524;11.468;2024-03-23T02:30:33;9.10;99.90
32640;DHT22;19049;52.524;11.468;2024-03-23T02:32:59;9.10;99.90
32640;DHT22;19049;52.524;11.468;2024-03-23T02:35:24;9.10;99.90
32640;DHT22;19049;52.524;11.468;2024-03-23T02:37:50;9.00;99.90
32640;DHT22;19049;52.524;11.468;2024-03-23T02:40:16;9.00;99.90
32640;DHT22;19049;52.524;11.468;2024-03-23T02:42:42;9.00;99.90
32640;DHT22;19049;52.524;11.468;2024-03-23T02:45:07;8.90;99.90
32640;DHT22;19049;52.524;11.468;2024-03-23T02:47:33;8.90;99.90
32640;DHT22;19049;52.524;11.468;2024-03-23T02:49:58;8.90;99.90
32640;DHT22;19049;52.524;11.468;2024-03-23T02:52:24;8.90;99.90
32640;DHT22;19049;52.524;11.468;2024-03-23T02:54:49;8.80;99.90
32640;DHT22;19049;52.524;11.468;2024-03-23T02:57:15;8.80;99.90
32640;DHT22;19049;52.524;11.468;2024-03-23T02:59:41;8.80;99.90
32640;DHT22;19049;52.524;11.468;2024-03-23T03:02:07;8.70;99.90
32640;DHT22;19049;52.524;11.468;2024-03-23T03:04:32;8.80;99.90
32640;DHT22;19049;52.524;11.468;2024-03-23T03:06:58;8.70;99.90
32640;DHT22;19049;52.524;11.468;2024-03-23T03:09:24;8.70;99.90
32640;DHT22;19049;52.524;11.468;2024-03-23T03:11:49;8.70;99.90
32640;DHT22;19049;52.524;11.468;2024-03-23T03:14:15;8.60;99.90
32640;DHT22;19049;52.524;11.468;2024-03-23T03:16:40;8.60;99.90
32640;DHT22;19049;52.524;11.468;2024-03-23T03:19:06;8.60;99.90
32640;DHT22;19049;52.524;11.468;2024-03-23T03:21:32;8.60;99.90
32640;DHT22;19049;52.524;11.468;2024-03-23T03:23:57;8.60;99.90
32640;DHT22;19049;52.524;11.468;2024-03-23T03:26:23;8.50;99.90
32640;DHT22;19049;52.524;11.468;2024-03-23T03:28:50;8.50;99.90
32640;DHT22;19049;52.524;11.468;2024-03-23T03:31:15;8.50;99.90
32640;DHT22;19049;52.524;11.468;2024-03-23T03:33:42;8.50;99.90
32640;DHT22;19049;52.524;11.468;2024-03-23T03:36:07;8.50;99.90
32640;DHT22;19049;52.524;11.468;2024-03-23T03:38:33;8.50;99.90
32640;DHT22;19049;52.524;11.468;2024-03-23T03:41:01;8.40;99.90
32640;DHT22;19049;52.524;11.468;2024-03-23T03:43:26;8.40;99.90
32640;DHT22;19049;52.524;11.468;2024-03-23T03:45:56;8.50;99.90
32640;DHT22;19049;52.524;11.468;2024-03-23T03:48:22;8.40;99.90
32640;DHT22;19049;52.524;11.468;2024-03-23T03:50:48;8.40;99.90
32640;DHT22;19049;52.524;11.468;2024-03-23T03:53:13;8.40;99.90
32640;DHT22;19049;52.524;11.468;2024-03-23T03:55:39;8.40;99.90
32640;DHT22;19049;52.524;11.468;2024-03-23T03:58:05;8.40;99.90
32640;DHT22;19049;52.524;11.468;2024-03-23T04:00:31;8.40;99.90
32640;DHT22;19049;52.524;11.468;2024-03-23T04:02:57;8.40;99.90
32640;DHT22;19049;52.524;11.468;2024-03-23T04:05:22;8.40;99.90
32640;DHT22;19049;52.524;11.468;2024-03-23T04:07:48;8.30;99.90
32640;DHT22;19049;52.524;11.468;2024-03-23T04:10:14;8.30;99.90
32640;DHT22;19049;52.524;11.468;2024-03-23T04:12:40;8.30;99.90
32640;DHT22;19049;52.524;11.468;2024-03-23T04:15:06;8.30;99.90
32640;DHT22;19049;52.524;11.468;2024-03-23T04:17:32;8.30;99.90
32640;DHT22;19049;52.524;11.468;2024-03-23T04:19:58;8.30;99.90
32640;DHT22;19049;52.524;11.468;2024-03-23T04:22:24;8.30;99.90
32640;DHT22;19049;52.524;11.468;2024-03-23T04:24:53;8.30;99.90
32640;DHT22;19049;52.524;11.468;2024-03-23T04:27:18;8.20;99.90
32640;DHT22;19049;52.524;11.468;2024-03-23T04:29:47;8.20;99.90
32640;DHT22;19049;52.524;11.468;2024-03-23T04:32:13;8.20;99.90
32640;DHT22;19049;52.524;11.468;2024-03-23T04:34:39;8.20;99.90
32640;DHT22;19049;52.524;11.468;2024-03-23T04:37:05;8.20;99.90
32640;DHT22;19049;52.524;11.468;2024-03-23T04:39:30;8.20;99.90
32640;DHT22;19049;52.524;11.468;2024-03-23T04:41:56;8.20;99.90
32640;DHT22;19049;52.524;11.468;2024-03-23T04:44:21;8.20;99.90
32640;DHT22;19049;52.524;11.468;2024-03-23T04:46:47;8.20;99.90
32640;DHT22;19049;52.524;11.468;2024-03-23T04:49:12;8.20;99.90
32640;DHT22;19049;52.524;11.468;2024-03-23T04:51:38;8.10;99.90
32640;DHT22;19049;52.524;11.468;2024-03-23T04:54:04;8.10;99.90
32640;DHT22;19049;52.524;11.468;2024-03-23T04:56:30;8.10;99.90
32640;DHT22;19049;52.524;11.468;2024-03-23T04:58:56;8.20;99.90
32640;DHT22;19049;52.524;11.468;2024-03-23T05:01:26;8.10;99.90
32640;DHT22;19049;52.524;11.468;2024-03-23T05:03:52;8.10;99.90
32640;DHT22;19049;52.524;11.468;2024-03-23T05:06:18;8.10;99.90
32640;DHT22;19049;52.524;11.468;2024-03-23T05:08:44;8.10;99.90
32640;DHT22;19049;52.524;11.468;2024-03-23T05:11:11;8.10;99.90
32640;DHT22;19049;52.524;11.468;2024-03-23T05:13:36;8.10;99.90
32640;DHT22;19049;52.524;11.468;2024-03-23T05:16:02;8.10;99.90
32640;DHT22;19049;52.524;11.468;2024-03-23T05:18:28;8.10;99.90
32640;DHT22;19049;52.524;11.468;2024-03-23T05:20:58;8.10;99.90
32640;DHT22;19049;52.524;11.468;2024-03-23T05:23:24;8.10;99.90
32640;DHT22;19049;52.524;11.468;2024-03-23T05:25:50;8.10;99.90
32640;DHT22;19049;52.524;11.468;2024-03-23T05:28:17;8.10;99.90
32640;DHT22;19049;52.524;11.468;2024-03-23T05:30:42;8.10;99.90
32640;DHT22;19049;52.524;11.468;2024-03-23T05:33:08;8.20;99.90
32640;DHT22;19049;52.524;11.468;2024-03-23T05:35:34;8.10;99.90
32640;DHT22;19049;52.524;11.468;2024-03-23T05:37:59;8.10;99.90
32640;DHT22;19049;52.524;11.468;2024-03-23T05:40:28;8.20;99.90
32640;DHT22;19049;52.524;11.468;2024-03-23T05:42:54;8.20;99.90
32640;DHT22;19049;52.524;11.468;2024-03-23T05:45:21;8.20;99.90
32640;DHT22;19049;52.524;11.468;2024-03-23T05:47:48;8.20;99.90
32640;DHT22;19049;52.524;11.468;2024-03-23T05:50:13;8.20;99.90
32640;DHT22;19049;52.524;11.468;2024-03-23T05:52:39;8.20;99.90
32640;DHT22;19049;52.524;11.468;2024-03-23T05:55:06;8.20;99.90
32640;DHT22;19049;52.524;11.468;2024-03-23T05:57:31;8.20;99.90
32640;DHT22;19049;52.524;11.468;2024-03-23T05:59:57;8.20;99.90
32640;DHT22;19049;52.524;11.468;2024-03-23T06:02:23;8.30;99.90
32640;DHT22;19049;52.524;11.468;2024-03-23T06:04:49;8.20;99.90
32640;DHT22;19049;52.524;11.468;2024-03-23T06:07:15;8.20;99.90
32640;DHT22;19049;52.524;11.468;2024-03-23T06:09:41;8.30;99.90
32640;DHT22;19049;52.524;11.468;2024-03-23T06:12:07;8.30;99.90
32640;DHT22;19049;52.524;11.468;2024-03-23T06:14:34;8.20;99.90
32640;DHT22;19049;52.524;11.468;2024-03-23T06:17:00;8.20;99.90
32640;DHT22;19049;52.524;11.468;2024-03-23T06:19:26;8.20;99.90
32640;DHT22;19049;52.524;11.468;2024-03-23T06:21:55;8.20;99.90
32640;DHT22;19049;52.524;11.468;2024-03-23T06:24:22;8.20;99.90
32640;DHT22;19049;52.524;11.468;2024-03-23T06:26:47;8.30;99.90
32640;DHT22;19049;52.524;11.468;2024-03-23T06:29:13;8.30;99.90
32640;DHT22;19049;52.524;11.468;2024-03-23T06:31:38;8.30;99.90
32640;DHT22;19049;52.524;11.468;2024-03-23T06:34:04;8.30;99.90
32640;DHT22;19049;52.524;11.468;2024-03-23T06:36:30;8.30;99.90
32640;DHT22;19049;52.524;11.468;2024-03-23T06:38:56;8.20;99.90
32640;DHT22;19049;52.524;11.468;2024-03-23T06:41:22;8.20;99.90
32640;DHT22;19049;52.524;11.468;2024-03-23T06:43:47;8.20;99.90
32640;DHT22;19049;52.524;11.468;2024-03-23T06:46:13;8.20;99.90
32640;DHT22;19049;52.524;11.468;2024-03-23T06:48:38;8.20;99.90
32640;DHT22;19049;52.524;11.468;2024-03-23T06:51:04;8.20;99.90
32640;DHT22;19049;52.524;11.468;2024-03-23T06:53:29;8.10;99.90
32640;DHT22;19049;52.524;11.468;2024-03-23T06:55:55;8.10;99.90
32640;DHT22;19049;52.524;11.468;2024-03-23T06:58:22;8.10;99.90
32640;DHT22;19049;52.524;11.468;2024-03-23T07:00:48;8.10;99.90
32640;DHT22;19049;52.524;11.468;2024-03-23T07:03:14;8.10;99.90
32640;DHT22;19049;52.524;11.468;2024-03-23T07:05:40;8.10;99.90
32640;DHT22;19049;52.524;11.468;2024-03-23T07:08:06;8.10;99.90
32640;DHT22;19049;52.524;11.468;2024-03-23T07:10:31;8.10;99.90
32640;DHT22;19049;52.524;11.468;2024-03-23T07:12:57;8.00;99.90
32640;DHT22;19049;52.524;11.468;2024-03-23T07:15:22;8.00;99.90
32640;DHT22;19049;52.524;11.468;2024-03-23T07:17:48;7.90;99.90
32640;DHT22;19049;52.524;11.468;2024-03-23T07:20:14;7.90;99.90
32640;DHT22;19049;52.524;11.468;2024-03-23T07:22:39;7.90;99.90
32640;DHT22;19049;52.524;11.468;2024-03-23T07:25:05;7.90;99.90
32640;DHT22;19049;52.524;11.468;2024-03-23T07:27:32;7.90;99.90
32640;DHT22;19049;52.524;11.468;2024-03-23T07:29:57;7.90;99.90
32640;DHT22;19049;52.524;11.468;2024-03-23T07:32:23;7.90;99.90
32640;DHT22;19049;52.524;11.468;2024-03-23T07:34:48;7.90;99.90
32640;DHT22;19049;52.524;11.468;2024-03-23T07:37:14;8.00;99.90
32640;DHT22;19049;52.524;11.468;2024-03-23T07:39:40;8.00;99.90
32640;DHT22;19049;52.524;11.468;2024-03-23T07:42:06;8.10;99.90
32640;DHT22;19049;52.524;11.468;2024-03-23T07:44:31;8.10;99.90
32640;DHT22;19049;52.524;11.468;2024-03-23T07:46:58;8.10;99.90
32640;DHT22;19049;52.524;11.468;2024-03-23T07:49:24;8.20;99.90
32640;DHT22;19049;52.524;11.468;2024-03-23T07:51:49;8.20;99.90
32640;DHT22;19049;52.524;11.468;2024-03-23T07:54:15;8.20;99.90
32640;DHT22;19049;52.524;11.468;2024-03-23T07:56:41;8.30;99.90
32640;DHT22;19049;52.524;11.468;2024-03-23T07:59:06;8.40;99.90
32640;DHT22;19049;52.524;11.468;2024-03-23T08:01:32;8.40;99.90
32640;DHT22;19049;52.524;11.468;2024-03-23T08:03:57;8.50;99.90
32640;DHT22;19049;52.524;11.468;2024-03-23T08:06:23;8.50;99.90
32640;DHT22;19049;52.524;11.468;2024-03-23T08:08:51;8.60;99.90
32640;DHT22;19049;52.524;11.468;2024-03-23T08:11:25;8.60;99.90
32640;DHT22;19049;52.524;11.468;2024-03-23T08:13:50;8.70;99.90
32640;DHT22;19049;52.524;11.468;2024-03-23T08:16:16;8.70;99.90
32640;DHT22;19049;52.524;11.468;2024-03-23T08:18:41;8.80;99.90
32640;DHT22;19049;52.524;11.468;2024-03-23T08:21:07;8.80;99.90
32640;DHT22;19049;52.524;11.468;2024-03-23T08:23:36;8.80;99.90
32640;DHT22;19049;52.524;11.468;2024-03-23T08:26:11;8.90;99.90
32640;DHT22;19049;52.524;11.468;2024-03-23T08:28:36;8.90;99.90
32640;DHT22;19049;52.524;11.468;2024-03-23T08:31:12;9.00;99.90
32640;DHT22;19049;52.524;11.468;2024-03-23T08:33:38;9.10;99.90
32640;DHT22;19049;52.524;11.468;2024-03-23T08:36:09;9.10;99.90
32640;DHT22;19049;52.524;11.468;2024-03-23T08:38:35;9.10;99.90
32640;DHT22;19049;52.524;11.468;2024-03-23T08:41:02;9.10;99.90
32640;DHT22;19049;52.524;11.468;2024-03-23T08:43:29;9.20;99.90
32640;DHT22;19049;52.524;11.468;2024-03-23T08:46:07;9.20;99.90
32640;DHT22;19049;52.524;11.468;2024-03-23T08:48:38;9.20;99.90
32640;DHT22;19049;52.524;11.468;2024-03-23T08:51:05;9.20;99.90
32640;DHT22;19049;52.524;11.468;2024-03-23T08:53:31;9.30;99.90
32640;DHT22;19049;52.524;11.468;2024-03-23T08:55:57;9.30;99.90
32640;DHT22;19049;52.524;11.468;2024-03-23T08:58:28;9.40;99.90
32640;DHT22;19049;52.524;11.468;2024-03-23T09:00:55;9.40;99.90
32640;DHT22;19049;52.524;11.468;2024-03-23T09:03:24;9.50;99.90
32640;DHT22;19049;52.524;11.468;2024-03-23T09:05:50;9.50;99.90
32640;DHT22;19049;52.524;11.468;2024-03-23T09:08:16;9.50;99.90
32640;DHT22;19049;52.524;11.468;2024-03-23T09:10:42;9.60;99.90
32640;DHT22;19049;52.524;11.468;2024-03-23T09:13:08;9.60;99.90
32640;DHT22;19049;52.524;11.468;2024-03-23T09:15:35;9.70;99.90
32640;DHT22;19049;52.524;11.468;2024-03-23T09:18:01;9.80;99.90
32640;DHT22;19049;52.524;11.468;2024-03-23T09:20:26;9.90;99.90
32640;DHT22;19049;52.524;11.468;2024-03-23T09:22:52;10.10;99.90
32640;DHT22;19049;52.524;11.468;2024-03-23T09:25:17;10.20;99.90
32640;DHT22;19049;52.524;11.468;2024-03-23T09:27:46;10.20;99.90
32640;DHT22;19049;52.524;11.468;2024-03-23T09:30:12;10.20;99.90
32640;DHT22;19049;52.524;11.468;2024-03-23T09:32:37;10.20;99.90
32640;DHT22;19049;52.524;11.468;2024-03-23T09:35:04;10.20;99.90
32640;DHT22;19049;52.524;11.468;2024-03-23T09:37:30;10.30;99.90
32640;DHT22;19049;52.524;11.468;2024-03-23T09:39:55;10.20;99.90
32640;DHT22;19049;52.524;11.468;2024-03-23T09:42:21;10.30;99.90
32640;DHT22;19049;52.524;11.468;2024-03-23T09:44:46;10.30;99.90
32640;DHT22;19049;52.524;11.468;2024-03-23T09:47:14;10.30;99.90
32640;DHT22;19049;52.524;11.468;2024-03-23T09:49:40;10.40;99.90
32640;DHT22;19049;52.524;11.468;2024-03-23T09:52:05;10.40;99.90
32640;DHT22;19049;52.524;11.468;2024-03-23T09:54:32;10.40;99.90
32640;DHT22;19049;52.524;11.468;2024-03-23T09:56:58;10.50;99.90
32640;DHT22;19049;52.524;11.468;2024-03-23T09:59:24;10.60;99.90
32640;DHT22;19049;52.524;11.468;2024-03-23T10:01:52;10.60;99.90
32640;DHT22;19049;52.524;11.468;2024-03-23T10:04:36;10.70;99.90
32640;DHT22;19049;52.524;11.468;2024-03-23T10:07:18;10.80;99.90
32640;DHT22;19049;52.524;11.468;2024-03-23T10:09:45;10.90;99.90
32640;DHT22;19049;52.524;11.468;2024-03-23T10:12:12;11.00;99.90
32640;DHT22;19049;52.524;11.468;2024-03-23T10:14:41;11.00;99.90
32640;DHT22;19049;52.524;11.468;2024-03-23T10:17:22;11.20;99.90
32640;DHT22;19049;52.524;11.468;2024-03-23T10:19:50;11.50;99.90
32640;DHT22;19049;52.524;11.468;2024-03-23T10:22:21;11.70;99.90
32640;DHT22;19049;52.524;11.468;2024-03-23T10:24:48;12.00;99.90
32640;DHT22;19049;52.524;11.468;2024-03-23T10:29:43;12.30;99.90
32640;DHT22;19049;52.524;11.468;2024-03-23T10:32:13;12.50;99.90
32640;DHT22;19049;52.524;11.468;2024-03-23T10:34:39;12.50;99.90
32640;DHT22;19049;52.524;11.468;2024-03-23T10:37:06;12.50;99.90
32640;DHT22;19049;52.524;11.468;2024-03-23T10:39:38;12.50;99.90
32640;DHT22;19049;52.524;11.468;2024-03-23T10:42:08;12.50;99.90
32640;DHT22;19049;52.524;11.468;2024-03-23T10:44:34;12.50;99.90
32640;DHT22;19049;52.524;11.468;2024-03-23T10:47:04;12.60;99.90
32640;DHT22;19049;52.524;11.468;2024-03-23T10:49:34;12.40;99.90
32640;DHT22;19049;52.524;11.468;2024-03-23T10:52:04;12.30;99.90
32640;DHT22;19049;52.524;11.468;2024-03-23T10:54:31;12.30;99.90
32640;DHT22;19049;52.524;11.468;2024-03-23T10:56:58;12.30;99.90
32640;DHT22;19049;52.524;11.468;2024-03-23T10:59:25;12.40;99.90
32640;DHT22;19049;52.524;11.468;2024-03-23T11:01:55;12.50;99.90
32640;DHT22;19049;52.524;11.468;2024-03-23T11:04:30;12.60;99.90
32640;DHT22;19049;52.524;11.468;2024-03-23T11:06:56;12.60;99.90
32640;DHT22;19049;52.524;11.468;2024-03-23T11:14:51;12.80;99.90
32640;DHT22;19049;52.524;11.468;2024-03-23T11:17:23;12.90;99.90
32640;DHT22;19049;52.524;11.468;2024-03-23T11:20:03;12.90;99.90
32640;DHT22;19049;52.524;11.468;2024-03-23T11:22:45;13.10;99.90
32640;DHT22;19049;52.524;11.468;2024-03-23T11:27:48;13.50;99.90
32640;DHT22;19049;52.524;11.468;2024-03-23T11:30:24;13.80;99.90
32640;DHT22;19049;52.524;11.468;2024-03-23T11:32:52;14.20;99.90
32640;DHT22;19049;52.524;11.468;2024-03-23T11:38:06;14.80;99.90
32640;DHT22;19049;52.524;11.468;2024-03-23T11:40:48;14.90;99.40
32640;DHT22;19049;52.524;11.468;2024-03-23T11:43:18;14.90;95.50
32640;DHT22;19049;52.524;11.468;2024-03-23T11:45:49;14.90;92.50
32640;DHT22;19049;52.524;11.468;2024-03-23T11:48:19;14.60;94.00
32640;DHT22;19049;52.524;11.468;2024-03-23T11:50:48;14.30;89.90
32640;DHT22;19049;52.524;11.468;2024-03-23T11:53:18;14.10;93.20
32640;DHT22;19049;52.524;11.468;2024-03-23T11:55:49;14.00;95.90
32640;DHT22;19049;52.524;11.468;2024-03-23T11:58:16;13.90;96.30
32640;DHT22;19049;52.524;11.468;2024-03-23T12:00:48;13.90;94.10
32640;DHT22;19049;52.524;11.468;2024-03-23T12:03:16;13.90;96.40
32640;DHT22;19049;52.524;11.468;2024-03-23T12:05:41;14.20;95.10
32640;DHT22;19049;52.524;11.468;2024-03-23T12:11:06;14.30;91.60
32640;DHT22;19049;52.524;11.468;2024-03-23T12:13:32;14.20;90.40
32640;DHT22;19049;52.524;11.468;2024-03-23T12:16:20;14.10;94.40
32640;DHT22;19049;52.524;11.468;2024-03-23T12:18:48;13.90;90.30
32640;DHT22;19049;52.524;11.468;2024-03-23T12:21:15;13.70;95.70
32640;DHT22;19049;52.524;11.468;2024-03-23T12:23:42;13.70;92.30
32640;DHT22;19049;52.524;11.468;2024-03-23T12:26:10;14.00;97.00
32640;DHT22;19049;52.524;11.468;2024-03-23T12:28:36;14.10;95.20
32640;DHT22;19049;52.524;11.468;2024-03-23T12:31:03;14.10;92.50
32640;DHT22;19049;52.524;11.468;2024-03-23T12:33:28;14.10;94.60
32640;DHT22;19049;52.524;11.468;2024-03-23T12:35:54;13.80;90.70
32640;DHT22;19049;52.524;11.468;2024-03-23T12:38:20;13.70;94.10
32640;DHT22;19049;52.524;11.468;2024-03-23T12:40:49;13.60;95.70
32640;DHT22;19049;52.524;11.468;2024-03-23T12:43:15;13.70;96.40
32640;DHT22;19049;52.524;11.468;2024-03-23T12:45:40;13.80;97.30
32640;DHT22;19049;52.524;11.468;2024-03-23T12:48:06;14.00;96.40
32640;DHT22;19049;52.524;11.468;2024-03-23T12:50:32;14.10;92.90
32640;DHT22;19049;52.524;11.468;2024-03-23T12:52:58;13.70;89.80
32640;DHT22;19049;52.524;11.468;2024-03-23T12:55:23;13.50;92.80
32640;DHT22;19049;52.524;11.468;2024-03-23T12:57:49;12.40;92.00
32640;DHT22;19049;52.524;11.468;2024-03-23T13:00:15;12.10;94.60
32640;DHT22;19049;52.524;11.468;2024-03-23T13:02:44;11.70;97.30
32640;DHT22;19049;52.524;11.468;2024-03-23T13:05:10;11.50;98.70
32640;DHT22;19049;52.524;11.468;2024-03-23T13:07:36;11.20;98.90
32640;DHT22;19049;52.524;11.468;2024-03-23T13:10:03;10.90;99.50
32640;DHT22;19049;52.524;11.468;2024-03-23T13:12:29;10.70;99.90
32640;DHT22;19049;52.524;11.468;2024-03-23T13:14:56;10.60;99.90
32640;DHT22;19049;52.524;11.468;2024-03-23T13:17:21;10.30;99.90
32640;DHT22;19049;52.524;11.468;2024-03-23T13:19:47;10.20;99.90
32640;DHT22;19049;52.524;11.468;2024-03-23T13:22:12;10.10;99.90
32640;DHT22;19049;52.524;11.468;2024-03-23T13:24:38;10.00;99.90
32640;DHT22;19049;52.524;11.468;2024-03-23T13:27:04;10.20;99.90
32640;DHT22;19049;52.524;11.468;2024-03-23T13:29:33;10.50;99.90
32640;DHT22;19049;52.524;11.468;2024-03-23T13:31:59;10.90;99.90
32640;DHT22;19049;52.524;11.468;2024-03-23T13:34:25;11.30;99.90
32640;DHT22;19049;52.524;11.468;2024-03-23T13:36:50;11.80;99.90
32640;DHT22;19049;52.524;11.468;2024-03-23T13:39:17;12.20;99.90
32640;DHT22;19049;52.524;11.468;2024-03-23T13:41:46;12.40;99.90
32640;DHT22;19049;52.524;11.468;2024-03-23T13:44:12;12.50;98.10
32640;DHT22;19049;52.524;11.468;2024-03-23T13:46:39;12.60;99.80
32640;DHT22;19049;52.524;11.468;2024-03-23T13:49:05;12.40;97.10
32640;DHT22;19049;52.524;11.468;2024-03-23T13:51:31;12.20;98.00
32640;DHT22;19049;52.524;11.468;2024-03-23T13:53:57;12.30;99.50
32640;DHT22;19049;52.524;11.468;2024-03-23T13:56:26;12.50;99.90
32640;DHT22;19049;52.524;11.468;2024-03-23T13:58:53;12.80;99.90
32640;DHT22;19049;52.524;11.468;2024-03-23T14:01:19;13.20;99.90
32640;DHT22;19049;52.524;11.468;2024-03-23T14:03:44;13.50;98.00
32640;DHT22;19049;52.524;11.468;2024-03-23T14:06:10;13.70;98.00
32640;DHT22;19049;52.524;11.468;2024-03-23T14:08:37;14.00;96.00
32640;DHT22;19049;52.524;11.468;2024-03-23T14:11:08;14.30;96.70
32640;DHT22;19049;52.524;11.468;2024-03-23T14:13:37;14.60;95.90
32640;DHT22;19049;52.524;11.468;2024-03-23T14:16:04;14.80;96.20
32640;DHT22;19049;52.524;11.468;2024-03-23T14:18:29;15.10;98.90
32640;DHT22;19049;52.524;11.468;2024-03-23T14:21:00;15.20;85.60
32640;DHT22;19049;52.524;11.468;2024-03-23T14:23:27;15.30;94.40
32640;DHT22;19049;52.524;11.468;2024-03-23T14:25:55;15.10;81.10
32640;DHT22;19049;52.524;11.468;2024-03-23T14:28:22;14.90;82.90
32640;DHT22;19049;52.524;11.468;2024-03-23T14:30:51;14.90;84.50
32640;DHT22;19049;52.524;11.468;2024-03-23T14:33:17;14.50;85.20
32640;DHT22;19049;52.524;11.468;2024-03-23T14:35:51;14.10;83.40
32640;DHT22;19049;52.524;11.468;2024-03-23T14:38:16;13.80;81.90
32640;DHT22;19049;52.524;11.468;2024-03-23T14:40:42;13.20;83.70
32640;DHT22;19049;52.524;11.468;2024-03-23T14:43:07;12.90;90.50
32640;DHT22;19049;52.524;11.468;2024-03-23T14:45:33;12.70;93.20
32640;DHT22;19049;52.524;11.468;2024-03-23T14:47:58;12.50;94.00
32640;DHT22;19049;52.524;11.468;2024-03-23T14:50:24;12.30;95.20
32640;DHT22;19049;52.524;11.468;2024-03-23T14:52:50;12.00;94.00
32640;DHT22;19049;52.524;11.468;2024-03-23T14:55:16;11.90;95.30
32640;DHT22;19049;52.524;11.468;2024-03-23T14:57:42;11.90;97.70
32640;DHT22;19049;52.524;11.468;2024-03-23T15:00:09;11.90;98.30
32640;DHT22;19049;52.524;11.468;2024-03-23T15:02:36;11.90;93.30
32640;DHT22;19049;52.524;11.468;2024-03-23T15:05:02;12.20;98.80
32640;DHT22;19049;52.524;11.468;2024-03-23T15:07:32;12.40;94.60
32640;DHT22;19049;52.524;11.468;2024-03-23T15:09:58;12.90;96.50
32640;DHT22;19049;52.524;11.468;2024-03-23T15:12:23;13.20;96.50
32640;DHT22;19049;52.524;11.468;2024-03-23T15:14:49;13.60;95.00
32640;DHT22;19049;52.524;11.468;2024-03-23T15:17:14;14.00;95.30
32640;DHT22;19049;52.524;11.468;2024-03-23T15:19:40;14.30;98.20
32640;DHT22;19049;52.524;11.468;2024-03-23T15:22:08;14.40;95.80
32640;DHT22;19049;52.524;11.468;2024-03-23T15:24:34;14.50;96.30
32640;DHT22;19049;52.524;11.468;2024-03-23T15:27:01;14.80;99.10
32640;DHT22;19049;52.524;11.468;2024-03-23T15:29:26;14.90;97.50
32640;DHT22;19049;52.524;11.468;2024-03-23T15:31:52;15.10;94.90
32640;DHT22;19049;52.524;11.468;2024-03-23T15:34:19;15.00;90.10
32640;DHT22;19049;52.524;11.468;2024-03-23T15:36:49;15.10;93.70
32640;DHT22;19049;52.524;11.468;2024-03-23T15:39:18;15.10;92.50
32640;DHT22;19049;52.524;11.468;2024-03-23T15:41:48;15.10;94.00
32640;DHT22;19049;52.524;11.468;2024-03-23T15:44:13;14.90;92.50
32640;DHT22;19049;52.524;11.468;2024-03-23T15:46:39;14.80;93.30
32640;DHT22;19049;52.524;11.468;2024-03-23T15:49:05;14.80;92.90
32640;DHT22;19049;52.524;11.468;2024-03-23T15:51:31;14.70;94.40
32640;DHT22;19049;52.524;11.468;2024-03-23T15:54:00;14.60;93.40
32640;DHT22;19049;52.524;11.468;2024-03-23T15:56:25;14.50;93.20
32640;DHT22;19049;52.524;11.468;2024-03-23T15:58:51;14.30;93.60
32640;DHT22;19049;52.524;11.468;2024-03-23T16:01:17;14.20;94.10
32640;DHT22;19049;52.524;11.468;2024-03-23T16:03:42;14.10;94.20
32640;DHT22;19049;52.524;11.468;2024-03-23T16:06:08;14.00;94.40
32640;DHT22;19049;52.524;11.468;2024-03-23T16:08:34;13.70;94.70
32640;DHT22;19049;52.524;11.468;2024-03-23T16:13:27;13.10;95.90
32640;DHT22;19049;52.524;11.468;2024-03-23T16:15:59;12.80;95.80
32640;DHT22;19049;52.524;11.468;2024-03-23T16:18:25;12.50;97.30
32640;DHT22;19049;52.524;11.468;2024-03-23T16:23:23;12.10;98.00
32640;DHT22;19049;52.524;11.468;2024-03-23T16:25:50;11.80;97.50
32640;DHT22;19049;52.524;11.468;2024-03-23T16:28:29;11.70;96.80
32640;DHT22;19049;52.524;11.468;2024-03-23T16:31:05;11.20;93.60
32640;DHT22;19049;52.524;11.468;2024-03-23T16:33:32;10.90;95.40
32640;DHT22;19049;52.524;11.468;2024-03-23T16:36:02;10.50;96.50